Time;durP1;ratioP1;P1;durP2;ratioP2;P2;SDS_P1;SDS_P2;PMS_P1;PMS_P2;Temp;Humidity;BMP_temperature;BMP_pressure;BME280_temperature;BME280_humidity;BME280_pressure;Samples;Min_cycle;Max_cycle;Signal;HPM_P1;HPM_P2
2020/12/19 00:00:50;;;;;;;9.37;7.57;;;;;;;8.74;61.02;101788.44;6076465;29;20558;-54
2020/12/19 00:04:10;;;;;;;9.80;8.83;;;;;;;8.56;61.63;101783.84;6071007;29;20316;-57
2020/12/19 00:07:31;;;;;;;11.17;9.33;;;;;;;8.69;61.51;101780.59;6073201;29;20237;-56
2020/12/19 00:10:51;;;;;;;8.30;7.50;;;;;;;8.47;61.79;101785.47;6076700;29;20241;-55
2020/12/19 00:14:19;;;;;;;9.33;8.43;;;;;;;8.50;62.15;101776.84;6072481;29;20233;-57
2020/12/19 00:17:39;;;;;;;12.43;8.97;;;;;;;8.46;61.82;101778.50;6067623;29;20233;-58
2020/12/19 00:20:59;;;;;;;12.03;8.73;;;;;;;8.52;61.15;101774.28;6070464;29;20241;-55
2020/12/19 00:24:20;;;;;;;8.90;7.83;;;;;;;8.28;62.44;101776.47;6074137;29;20572;-53
2020/12/19 00:27:40;;;;;;;9.43;8.33;;;;;;;8.41;61.87;101762.03;6074040;29;20226;-56
2020/12/19 00:31:02;;;;;;;9.00;8.10;;;;;;;8.57;61.35;101763.09;6067197;29;20225;-57
2020/12/19 00:34:22;;;;;;;10.77;8.57;;;;;;;8.30;62.24;101763.53;6072643;29;20303;-54
2020/12/19 00:37:44;;;;;;;9.80;8.80;;;;;;;8.35;62.05;101761.88;6075531;29;20316;-56
2020/12/19 00:41:04;;;;;;;10.50;8.23;;;;;;;8.39;61.68;101755.88;6073317;29;20575;-54
2020/12/19 00:44:24;;;;;;;8.40;7.60;;;;;;;8.22;62.12;101759.94;6069670;29;21103;-57
2020/12/19 00:47:46;;;;;;;10.60;9.50;;;;;;;8.32;61.97;101748.84;6075615;29;20500;-55
2020/12/19 00:51:11;;;;;;;9.73;8.83;;;;;;;8.30;61.76;101737.59;6072326;29;20233;-57
2020/12/19 00:54:31;;;;;;;10.23;9.23;;;;;;;8.15;62.33;101747.72;6073073;29;20603;-56
2020/12/19 00:57:52;;;;;;;10.63;8.80;;;;;;;8.36;61.64;101736.81;6072664;29;20317;-56
2020/12/19 01:01:13;;;;;;;12.80;11.30;;;;;;;8.00;62.55;101736.25;6069244;29;20257;-56
2020/12/19 01:04:35;;;;;;;11.60;10.37;;;;;;;8.22;61.97;101739.16;6071703;29;20225;-56
2020/12/19 01:07:55;;;;;;;9.63;8.73;;;;;;;7.99;62.55;101739.69;6075714;29;20241;-54
2020/12/19 01:11:17;;;;;;;13.10;10.50;;;;;;;7.88;62.94;101743.81;6074137;29;20229;-57
2020/12/19 01:14:38;;;;;;;11.07;9.37;;;;;;;7.97;62.94;101733.63;6066400;29;20264;-55
2020/12/19 01:17:59;;;;;;;11.30;9.87;;;;;;;7.94;62.67;101733.53;6074448;29;20237;-57
2020/12/19 01:21:22;;;;;;;10.07;9.17;;;;;;;7.79;63.18;101723.81;6073276;29;20237;-57
2020/12/19 01:24:42;;;;;;;12.40;11.13;;;;;;;7.81;63.01;101729.00;6071084;29;20241;-54
2020/12/19 01:28:03;;;;;;;12.33;9.47;;;;;;;7.69;63.45;101733.13;6067982;29;20245;-57
2020/12/19 01:31:24;;;;;;;10.50;9.60;;;;;;;7.50;64.14;101728.47;6073721;29;20237;-56
2020/12/19 01:34:44;;;;;;;9.63;8.30;;;;;;;7.51;63.79;101727.63;6071925;29;20860;-57
2020/12/19 01:38:06;;;;;;;11.77;10.03;;;;;;;7.56;63.79;101731.19;6072286;29;20321;-55
2020/12/19 01:41:26;;;;;;;11.03;9.93;;;;;;;7.65;63.41;101727.88;6073318;29;20336;-56
2020/12/19 01:44:47;;;;;;;11.40;10.33;;;;;;;7.74;63.12;101729.75;6070231;29;20229;-56
2020/12/19 01:48:14;;;;;;;11.00;9.93;;;;;;;7.74;63.19;101719.41;6080951;29;20245;-56
2020/12/19 01:51:34;;;;;;;13.40;10.47;;;;;;;7.43;64.13;101717.13;6070751;29;20229;-57
2020/12/19 01:54:58;;;;;;;11.50;10.30;;;;;;;7.10;65.08;101720.81;6069853;29;20522;-56
2020/12/19 01:58:18;;;;;;;12.47;11.13;;;;;;;7.23;64.60;101716.75;6070948;29;20225;-55
2020/12/19 02:01:42;;;;;;;15.63;12.03;;;;;;;7.36;64.46;101711.78;6068168;29;20241;-57
2020/12/19 02:05:03;;;;;;;10.53;9.53;;;;;;;7.60;63.64;101717.44;6070504;29;20260;-56
2020/12/19 02:08:23;;;;;;;12.23;10.93;;;;;;;7.59;63.74;101702.72;6072467;29;20233;-57
2020/12/19 02:11:45;;;;;;;12.77;9.83;;;;;;;7.63;63.56;101706.22;6062972;29;20229;-57
2020/12/19 02:15:05;;;;;;;11.70;10.37;;;;;;;7.58;63.67;101710.44;6069766;29;20622;-56
2020/12/19 02:18:26;;;;;;;12.43;10.80;;;;;;;7.22;64.78;101699.47;6068682;29;20569;-56
2020/12/19 02:21:46;;;;;;;12.27;10.70;;;;;;;7.30;64.69;101695.28;6070312;29;20503;-57
2020/12/19 02:25:07;;;;;;;12.30;11.10;;;;;;;7.21;64.95;101689.06;6072612;29;20225;-56
2020/12/19 02:28:27;;;;;;;14.50;12.87;;;;;;;7.25;64.52;101694.34;6068097;29;20815;-55
2020/12/19 02:31:48;;;;;;;13.40;12.10;;;;;;;7.35;64.43;101687.63;6074421;29;20228;-57
2020/12/19 02:35:09;;;;;;;11.83;10.57;;;;;;;7.25;64.72;101691.75;6065076;29;20221;-57
2020/12/19 02:38:29;;;;;;;14.33;12.83;;;;;;;7.58;63.86;101700.09;6072030;29;20256;-57
2020/12/19 02:41:50;;;;;;;13.13;11.27;;;;;;;7.52;63.79;101700.84;6080578;29;20636;-56
2020/12/19 02:45:12;;;;;;;12.87;11.60;;;;;;;7.47;63.73;101700.78;6066926;29;20237;-57
2020/12/19 02:48:33;;;;;;;14.03;12.40;;;;;;;7.72;63.20;101700.34;6068510;29;20229;-57
2020/12/19 02:51:53;;;;;;;14.07;12.43;;;;;;;7.69;63.12;101702.00;6071288;29;20230;-58
2020/12/19 02:55:14;;;;;;;14.53;12.10;;;;;;;7.99;62.22;101690.41;6069604;29;20775;-58
2020/12/19 02:58:35;;;;;;;12.90;11.50;;;;;;;7.62;63.13;101696.72;6072198;29;20241;-55
2020/12/19 03:01:56;;;;;;;13.23;11.93;;;;;;;7.51;63.49;101691.34;6072735;29;22261;-57
2020/12/19 03:05:16;;;;;;;12.50;11.07;;;;;;;7.52;63.61;101692.22;6063471;29;20260;-58
2020/12/19 03:08:37;;;;;;;14.63;13.13;;;;;;;7.48;63.49;101686.09;6072294;29;20232;-57
2020/12/19 03:11:57;;;;;;;13.90;12.43;;;;;;;7.44;63.85;101684.28;6069670;29;20236;-57
2020/12/19 03:15:18;;;;;;;13.73;12.37;;;;;;;7.35;63.82;101690.19;6067951;29;20234;-56
2020/12/19 03:18:39;;;;;;;15.13;12.97;;;;;;;7.54;63.52;101686.22;6062649;29;20233;-56
2020/12/19 03:21:59;;;;;;;16.47;13.43;;;;;;;7.52;63.43;101674.94;6066371;29;20703;-50
2020/12/19 03:25:20;;;;;;;15.40;13.87;;;;;;;7.12;64.53;101671.63;6069441;29;20229;-57
2020/12/19 03:28:41;;;;;;;12.73;11.47;;;;;;;7.40;64.06;101662.63;6059179;29;20599;-57
2020/12/19 03:32:02;;;;;;;15.63;14.07;;;;;;;7.25;64.49;101659.75;6060572;29;20240;-55
2020/12/19 03:35:24;;;;;;;15.93;14.27;;;;;;;6.99;65.17;101659.28;6069202;29;20237;-56
2020/12/19 03:38:44;;;;;;;15.47;13.83;;;;;;;7.27;64.70;101656.38;6064558;29;20229;-54
2020/12/19 03:42:05;;;;;;;16.00;13.73;;;;;;;7.10;65.38;101644.84;6067078;29;20237;-57
2020/12/19 03:45:25;;;;;;;16.70;15.10;;;;;;;7.14;65.41;101649.22;6072980;29;20268;-55
2020/12/19 03:48:47;;;;;;;15.70;14.10;;;;;;;7.28;64.77;101652.94;6068399;29;20237;-57
2020/12/19 03:52:07;;;;;;;17.97;15.77;;;;;;;7.21;64.95;101645.91;6072784;29;20241;-55
2020/12/19 03:55:28;;;;;;;16.57;14.73;;;;;;;7.30;64.69;101642.59;6073740;29;20240;-55
2020/12/19 03:58:48;;;;;;;16.30;14.57;;;;;;;7.15;65.41;101640.59;6062865;29;20230;-57
2020/12/19 04:02:08;;;;;;;17.43;15.63;;;;;;;7.22;65.09;101637.28;6070139;29;20237;-56
2020/12/19 04:05:29;;;;;;;17.67;15.83;;;;;;;7.07;65.59;101630.09;6072253;29;20225;-55
2020/12/19 04:08:50;;;;;;;17.77;15.67;;;;;;;7.11;65.23;101636.19;6062197;29;20328;-56
2020/12/19 04:12:12;;;;;;;17.03;14.40;;;;;;;7.06;65.25;101625.78;6063774;29;20320;-57
2020/12/19 04:15:33;;;;;;;17.07;15.23;;;;;;;7.14;65.06;101623.31;6070036;29;20241;-58
2020/12/19 04:18:53;;;;;;;15.77;14.23;;;;;;;7.15;64.96;101621.59;6066217;29;20228;-56
2020/12/19 04:22:15;;;;;;;16.33;14.83;;;;;;;7.02;65.52;101615.34;6071390;29;20941;-56
2020/12/19 04:25:35;;;;;;;16.10;14.17;;;;;;;7.07;65.21;101619.72;6067550;29;20540;-57
2020/12/19 04:28:56;;;;;;;18.23;14.77;;;;;;;7.10;65.24;101622.38;6073523;29;20233;-57
2020/12/19 04:32:17;;;;;;;18.33;15.17;;;;;;;7.10;64.92;101624.13;6077082;29;20233;-57
2020/12/19 04:35:38;;;;;;;20.40;15.40;;;;;;;7.28;64.54;101621.84;6072230;29;20229;-54
2020/12/19 04:38:59;;;;;;;18.00;15.80;;;;;;;7.20;64.72;101613.06;6079180;29;20232;-56
2020/12/19 04:42:20;;;;;;;17.33;15.03;;;;;;;7.21;64.51;101609.63;6072076;29;20715;-56
2020/12/19 04:45:41;;;;;;;17.47;15.60;;;;;;;7.25;64.28;101608.84;6074402;29;20624;-55
2020/12/19 04:49:01;;;;;;;16.40;14.77;;;;;;;6.96;65.03;101608.31;6071382;29;20229;-55
2020/12/19 04:52:21;;;;;;;16.90;15.07;;;;;;;7.02;64.94;101621.38;6074974;29;20297;-53
2020/12/19 04:55:43;;;;;;;16.67;14.90;;;;;;;6.79;65.76;101609.72;6075721;29;20710;-53
2020/12/19 04:59:05;;;;;;;16.83;14.90;;;;;;;6.82;65.60;101604.59;6070053;29;20515;-56
2020/12/19 05:02:26;;;;;;;16.40;14.67;;;;;;;6.89;65.35;101596.09;6073004;29;20237;-57
2020/12/19 05:05:46;;;;;;;18.30;16.23;;;;;;;6.90;65.32;101598.72;6080003;29;20280;-51
2020/12/19 05:09:08;;;;;;;16.50;14.80;;;;;;;6.64;66.40;101599.94;6071333;29;20245;-53
2020/12/19 05:12:30;;;;;;;18.27;15.80;;;;;;;6.84;65.77;101603.78;6073001;29;20497;-56
2020/12/19 05:15:50;;;;;;;17.63;15.70;;;;;;;6.82;65.90;101604.59;6076943;29;20237;-56
2020/12/19 05:19:12;;;;;;;18.63;16.50;;;;;;;6.68;66.70;101606.91;6070210;29;20245;-57
2020/12/19 05:22:34;;;;;;;18.10;16.03;;;;;;;6.55;66.89;101604.94;6073393;29;20240;-53
2020/12/19 05:25:56;;;;;;;19.47;17.27;;;;;;;6.76;66.41;101589.81;6072321;29;20595;-54
2020/12/19 05:29:18;;;;;;;19.37;15.97;;;;;;;6.61;66.81;101584.34;6065583;29;20225;-52
2020/12/19 05:32:44;;;;;;;17.50;15.67;;;;;;;6.66;66.61;101595.66;6072291;29;20234;-55
2020/12/19 05:36:06;;;;;;;16.47;14.87;;;;;;;6.61;66.88;101607.63;6075846;29;20620;-53
2020/12/19 05:39:26;;;;;;;19.17;17.20;;;;;;;6.59;66.94;101604.13;6070283;29;20229;-57
2020/12/19 05:42:47;;;;;;;17.93;16.03;;;;;;;6.77;66.20;101594.16;6072716;29;20506;-58
2020/12/19 05:46:26;;;;;;;17.67;15.87;;;;;;;6.93;65.65;101597.91;6060504;29;20229;-57
2020/12/19 05:49:47;;;;;;;18.07;16.17;;;;;;;6.96;65.45;101597.97;6072298;29;20253;-58
2020/12/19 05:53:08;;;;;;;18.63;16.67;;;;;;;6.83;65.95;101591.69;6072968;29;20237;-57
2020/12/19 05:56:29;;;;;;;17.17;15.37;;;;;;;6.48;67.31;101588.41;6071518;29;20643;-55
2020/12/19 05:59:49;;;;;;;17.00;15.20;;;;;;;6.62;66.80;101586.97;6060578;29;20261;-57
2020/12/19 06:03:12;;;;;;;20.88;18.85;;;;;;;6.74;66.75;101594.09;6072167;29;21254;-55
2020/12/19 06:06:37;;;;;;;19.27;16.97;;;;;;;6.73;66.39;101587.19;6069681;29;22146;-57
2020/12/19 06:09:58;;;;;;;19.13;17.23;;;;;;;6.72;66.47;101581.97;6072321;29;20237;-57
2020/12/19 06:13:22;;;;;;;20.77;18.07;;;;;;;6.78;66.22;101576.91;6067991;29;20241;-56
2020/12/19 06:16:44;;;;;;;18.83;16.83;;;;;;;6.81;65.92;101567.47;6068339;29;20233;-56
2020/12/19 06:20:08;;;;;;;18.37;16.37;;;;;;;6.92;65.90;101569.38;6067338;29;20623;-57
2020/12/19 06:23:34;;;;;;;19.37;17.23;;;;;;;6.99;65.29;101566.06;6069259;29;20312;-53
2020/12/19 06:26:54;;;;;;;16.27;14.57;;;;;;;7.05;64.94;101569.63;6075111;29;20226;-56
2020/12/19 06:30:31;;;;;;;16.93;15.13;;;;;;;6.96;65.53;101564.31;6069976;29;20233;-57
2020/12/19 06:33:53;;;;;;;19.33;15.37;;;;;;;6.83;65.76;101567.50;6068562;29;20233;-57
2020/12/19 06:37:20;;;;;;;18.63;16.57;;;;;;;6.67;66.27;101556.88;6062692;29;20225;-56
2020/12/19 06:40:40;;;;;;;19.50;15.30;;;;;;;6.92;65.64;101553.84;6072555;29;20548;-54
2020/12/19 06:44:08;;;;;;;18.27;16.10;;;;;;;7.14;64.90;101560.28;6068134;29;20244;-57
2020/12/19 06:47:31;;;;;;;18.57;16.67;;;;;;;7.19;64.54;101559.53;6072757;29;20237;-56
2020/12/19 06:50:59;;;;;;;18.93;16.57;;;;;;;7.08;64.70;101556.72;6051634;29;22188;-57
2020/12/19 06:54:27;;;;;;;18.73;16.57;;;;;;;7.06;64.72;101558.44;6074138;29;20232;-56
2020/12/19 06:57:51;;;;;;;17.83;15.97;;;;;;;6.92;65.13;101559.91;6068275;29;20247;-55
2020/12/19 07:01:26;;;;;;;18.65;16.73;;;;;;;7.07;64.69;101567.94;6058779;29;20724;-57
2020/12/19 07:04:47;;;;;;;17.57;14.73;;;;;;;6.81;65.76;101559.72;6066016;29;20539;-57
2020/12/19 07:08:18;;;;;;;17.10;15.30;;;;;;;6.90;65.49;101565.06;6067071;29;20735;-58
2020/12/19 07:11:41;;;;;;;18.73;14.87;;;;;;;6.94;65.19;101568.59;6067882;29;20236;-57
2020/12/19 07:15:04;;;;;;;17.80;15.50;;;;;;;6.86;65.52;101564.97;6065588;29;20237;-55
2020/12/19 07:18:27;;;;;;;18.37;16.53;;;;;;;6.77;65.70;101554.47;6065836;29;20248;-55
2020/12/19 07:21:48;;;;;;;19.60;16.67;;;;;;;6.90;65.43;101556.41;6067161;29;20233;-54
2020/12/19 07:25:09;;;;;;;18.43;15.20;;;;;;;6.85;65.75;101553.75;6066051;29;20249;-56
2020/12/19 07:28:30;;;;;;;16.93;15.13;;;;;;;6.88;65.42;101558.09;6067399;29;20501;-55
2020/12/19 07:31:52;;;;;;;17.27;15.47;;;;;;;6.98;64.88;101551.34;6084173;29;20236;-56
2020/12/19 07:35:12;;;;;;;17.00;14.30;;;;;;;6.81;65.43;101559.72;6063615;29;20288;-53
2020/12/19 07:38:33;;;;;;;16.73;14.73;;;;;;;7.06;64.95;101557.56;6054538;29;20273;-54
2020/12/19 07:42:06;;;;;;;16.00;14.23;;;;;;;6.82;65.42;101564.03;6063819;29;20392;-55
2020/12/19 07:45:28;;;;;;;17.13;15.23;;;;;;;6.64;65.79;101559.38;6064609;29;20271;-54
2020/12/19 07:48:53;;;;;;;18.13;16.33;;;;;;;6.84;65.55;101569.25;6062825;29;20514;-57
2020/12/19 07:52:19;;;;;;;17.83;15.13;;;;;;;6.50;65.97;101569.47;6062405;29;20245;-56
2020/12/19 07:55:49;;;;;;;17.07;13.73;;;;;;;6.83;65.34;101565.78;6064467;29;20237;-57
2020/12/19 07:59:11;;;;;;;16.23;14.30;;;;;;;7.17;64.04;101565.50;6061841;29;20237;-53
2020/12/19 08:02:37;;;;;;;18.40;14.83;;;;;;;7.10;64.38;101572.31;6066821;29;20244;-56
2020/12/19 08:05:57;;;;;;;17.90;15.80;;;;;;;6.90;64.84;101567.66;6068722;29;20237;-55
2020/12/19 08:09:19;;;;;;;18.30;15.17;;;;;;;7.06;64.26;101560.16;6067895;29;20339;-55
2020/12/19 08:12:40;;;;;;;19.70;16.47;;;;;;;7.05;64.49;101561.00;6067402;29;20229;-56
2020/12/19 08:16:01;;;;;;;17.23;14.73;;;;;;;7.16;64.02;101556.88;6070182;29;21117;-55
2020/12/19 08:19:29;;;;;;;17.83;14.83;;;;;;;7.03;64.34;101547.13;6068480;29;20324;-57
2020/12/19 08:22:50;;;;;;;17.70;14.80;;;;;;;6.99;64.41;101561.75;6065065;29;20549;-57
2020/12/19 08:26:11;;;;;;;18.57;14.43;;;;;;;6.99;64.71;101560.88;6066813;29;20229;-55
2020/12/19 08:29:32;;;;;;;17.03;15.33;;;;;;;6.92;64.68;101552.16;6066464;29;20268;-55
2020/12/19 08:32:56;;;;;;;18.20;15.87;;;;;;;7.16;64.20;101543.91;6068178;29;20233;-56
2020/12/19 08:36:19;;;;;;;16.27;14.57;;;;;;;8.01;61.68;101543.44;6064322;29;20241;-54
2020/12/19 08:39:39;;;;;;;17.03;14.03;;;;;;;7.66;62.54;101530.88;6065834;29;20236;-56
2020/12/19 08:43:00;;;;;;;19.47;15.70;;;;;;;11.75;53.65;101536.84;6064578;29;20250;-57
2020/12/19 08:46:21;;;;;;;16.57;13.50;;;;;;;13.38;47.63;101535.97;6064666;29;20237;-57
2020/12/19 08:49:41;;;;;;;13.90;12.50;;;;;;;14.13;44.33;101542.13;6063318;29;20241;-57
2020/12/19 08:53:12;;;;;;;12.33;11.00;;;;;;;14.66;44.32;101532.72;6064600;29;20248;-57
2020/12/19 08:56:36;;;;;;;13.57;11.83;;;;;;;16.56;40.22;101530.09;6064849;29;20229;-57
2020/12/19 09:00:09;;;;;;;13.33;11.50;;;;;;;16.38;39.50;101533.13;6067836;29;20659;-66
2020/12/19 09:03:31;;;;;;;16.00;14.40;;;;;;;17.58;39.73;101519.72;6066154;29;20328;-68
2020/12/19 09:06:54;;;;;;;14.73;12.77;;;;;;;18.58;37.40;101525.63;6062647;29;20337;-64
2020/12/19 09:10:26;;;;;;;24.23;22.42;;;;;;;17.15;37.46;101526.97;6066180;29;20225;-66
2020/12/19 09:13:47;;;;;;;633.22;582.05;;;;;;;17.56;38.73;101517.13;6063162;29;20236;-64
2020/12/19 09:17:08;;;;;;;132.52;122.68;;;;;;;16.39;39.11;101527.84;6066048;29;20845;-63
2020/12/19 09:20:28;;;;;;;27.50;25.25;;;;;;;16.18;38.73;101521.28;6064458;29;20233;-69
2020/12/19 09:23:49;;;;;;;16.58;15.07;;;;;;;16.96;38.39;101520.44;6063851;29;20237;-66
2020/12/19 09:27:14;;;;;;;16.10;14.73;;;;;;;17.09;38.86;101508.69;6055207;29;20758;-69
2020/12/19 09:30:34;;;;;;;13.55;12.45;;;;;;;16.98;39.80;101508.09;6060499;29;20234;-67
2020/12/19 09:33:55;;;;;;;13.77;12.57;;;;;;;16.90;38.98;101501.28;6066059;29;20237;-62
2020/12/19 09:37:16;;;;;;;13.68;12.40;;;;;;;15.85;40.31;101507.94;6067123;29;20245;-65
2020/12/19 09:40:37;;;;;;;14.13;12.82;;;;;;;15.11;42.40;101504.03;6065042;29;20327;-65
2020/12/19 09:43:58;;;;;;;13.38;12.13;;;;;;;15.40;41.70;101500.03;6065495;29;20248;-63
2020/12/19 09:47:19;;;;;;;25.65;23.45;;;;;;;15.60;41.98;101491.75;6063529;29;20534;-64
2020/12/19 09:50:40;;;;;;;12.20;11.00;;;;;;;15.33;41.48;101487.91;6063116;29;20312;-64
2020/12/19 09:54:01;;;;;;;14.45;13.13;;;;;;;15.36;42.37;101487.84;6064188;29;20237;-64
2020/12/19 09:57:21;;;;;;;13.00;11.80;;;;;;;15.37;42.15;101489.56;6065114;29;20249;-65
2020/12/19 10:00:43;;;;;;;11.43;10.32;;;;;;;15.15;42.74;101495.19;6064908;29;20635;-65
2020/12/19 10:04:03;;;;;;;12.40;11.20;;;;;;;15.19;43.27;101495.16;6065494;29;20328;-65
2020/12/19 10:07:24;;;;;;;13.40;12.00;;;;;;;15.19;42.39;101492.53;6061105;29;20225;-65
2020/12/19 10:10:46;;;;;;;12.45;11.35;;;;;;;15.02;42.98;101493.69;6064291;29;20537;-64
2020/12/19 10:14:06;;;;;;;10.50;9.52;;;;;;;15.03;42.94;101484.94;6060902;29;20233;-64
2020/12/19 10:17:28;;;;;;;11.57;10.65;;;;;;;15.08;42.98;101472.63;6062024;29;20252;-65
2020/12/19 10:20:48;;;;;;;11.40;10.30;;;;;;;14.56;43.85;101476.03;6064433;29;20560;-64
2020/12/19 10:24:09;;;;;;;11.70;10.80;;;;;;;14.30;44.39;101468.56;6064301;29;20245;-65
2020/12/19 10:27:30;;;;;;;12.50;11.38;;;;;;;14.53;45.20;101455.13;6064500;29;20507;-65
2020/12/19 10:30:50;;;;;;;11.48;10.38;;;;;;;14.57;44.40;101455.06;6059060;29;20545;-65
2020/12/19 10:34:12;;;;;;;13.25;11.80;;;;;;;14.89;44.10;101460.72;6061599;29;20264;-65
2020/12/19 10:37:33;;;;;;;13.10;10.93;;;;;;;15.71;44.15;101447.78;6062990;29;20229;-64
2020/12/19 10:40:53;;;;;;;13.63;12.25;;;;;;;15.67;41.67;101445.28;6065218;29;20245;-65
2020/12/19 10:44:14;;;;;;;12.25;11.05;;;;;;;15.48;42.42;101453.50;6056252;29;20237;-64
2020/12/19 10:47:35;;;;;;;11.77;10.05;;;;;;;14.60;44.53;101454.16;6066821;29;20252;-64
2020/12/19 10:50:56;;;;;;;12.25;11.15;;;;;;;14.32;45.47;101448.44;6065002;29;20547;-63
2020/12/19 10:54:17;;;;;;;11.18;10.05;;;;;;;14.45;44.58;101443.88;6063259;29;20225;-65
2020/12/19 10:57:37;;;;;;;12.23;11.02;;;;;;;14.01;46.42;101448.84;6064725;29;20316;-64
2020/12/19 11:00:58;;;;;;;12.90;11.70;;;;;;;13.28;47.67;101455.78;6062982;29;20271;-66
2020/12/19 11:04:19;;;;;;;11.55;10.48;;;;;;;13.11;47.99;101448.97;6063071;29;20241;-64
2020/12/19 11:07:39;;;;;;;11.73;10.52;;;;;;;13.65;46.98;101437.09;6055486;29;20253;-65
2020/12/19 11:11:00;;;;;;;12.07;11.00;;;;;;;14.03;46.18;101434.00;6060636;29;20324;-65
2020/12/19 11:14:21;;;;;;;13.10;11.80;;;;;;;14.47;45.73;101426.38;6062810;29;20285;-65
2020/12/19 11:17:41;;;;;;;12.57;11.37;;;;;;;14.27;46.33;101430.19;6055071;29;20237;-65
2020/12/19 11:21:03;;;;;;;11.70;10.60;;;;;;;14.13;46.77;101432.09;6063970;29;20233;-65
2020/12/19 11:24:24;;;;;;;11.97;10.87;;;;;;;13.92;46.67;101428.91;6064373;29;20264;-64
2020/12/19 11:27:44;;;;;;;11.43;10.33;;;;;;;14.16;47.17;101411.97;6063239;29;20229;-63
2020/12/19 11:31:05;;;;;;;12.20;11.03;;;;;;;14.87;46.08;101402.16;6062170;29;20285;-64
2020/12/19 11:34:26;;;;;;;13.33;12.10;;;;;;;14.50;46.02;101407.97;6065001;29;20249;-64
2020/12/19 11:37:46;;;;;;;12.73;10.73;;;;;;;14.61;46.61;101410.47;6066330;29;20735;-66
2020/12/19 11:41:09;;;;;;;12.40;11.07;;;;;;;15.00;46.34;101389.69;6072374;29;20502;-65
2020/12/19 11:44:29;;;;;;;11.87;10.17;;;;;;;14.87;46.07;101391.66;6070618;29;20260;-64
2020/12/19 11:47:50;;;;;;;11.13;9.60;;;;;;;14.64;46.89;101377.22;6070094;29;20229;-64
2020/12/19 11:51:11;;;;;;;12.13;11.07;;;;;;;14.96;46.15;101383.63;6071575;29;20312;-65
2020/12/19 11:54:31;;;;;;;10.83;9.83;;;;;;;14.90;46.42;101399.47;6070231;29;20236;-65
2020/12/19 11:57:53;;;;;;;11.83;10.83;;;;;;;14.62;46.78;101394.72;6070825;29;20233;-65
2020/12/19 12:01:13;;;;;;;11.77;10.67;;;;;;;15.17;46.60;101400.75;6069723;29;20240;-64
2020/12/19 12:04:34;;;;;;;10.70;9.70;;;;;;;15.13;46.19;101401.69;6082182;29;20264;-63
2020/12/19 12:07:54;;;;;;;12.80;11.47;;;;;;;14.17;48.39;101416.34;6069533;29;20579;-63
2020/12/19 12:11:14;;;;;;;11.70;10.60;;;;;;;14.29;47.88;101407.44;6069596;29;20742;-64
2020/12/19 12:14:36;;;;;;;12.20;11.00;;;;;;;14.45;47.47;101409.81;6067038;29;20237;-64
2020/12/19 12:17:56;;;;;;;11.97;10.30;;;;;;;14.28;48.01;101391.72;6069701;29;21096;-63
2020/12/19 12:21:17;;;;;;;11.27;10.20;;;;;;;14.76;46.72;101381.38;6069838;29;20232;-62
2020/12/19 12:24:37;;;;;;;11.10;10.10;;;;;;;14.77;47.37;101370.88;6071792;29;20545;-64
2020/12/19 12:27:58;;;;;;;11.67;10.43;;;;;;;15.34;45.97;101368.94;6066644;29;21646;-65
2020/12/19 12:31:23;;;;;;;12.77;10.03;;;;;;;15.55;45.66;101368.50;6068868;29;20237;-65
2020/12/19 12:34:44;;;;;;;11.77;10.57;;;;;;;15.46;45.33;101368.66;6072516;29;20244;-63
2020/12/19 12:38:05;;;;;;;11.13;10.13;;;;;;;15.54;45.93;101366.75;6078885;29;20597;-64
2020/12/19 12:41:26;;;;;;;10.17;9.17;;;;;;;15.32;46.28;101360.22;6077060;29;20242;-64
2020/12/19 12:44:47;;;;;;;11.27;9.50;;;;;;;14.65;47.11;101355.34;6057039;29;20373;-64
2020/12/19 12:48:08;;;;;;;11.40;10.40;;;;;;;14.04;48.65;101359.78;6077698;29;20320;-64
2020/12/19 12:51:29;;;;;;;11.83;10.63;;;;;;;13.62;49.80;101364.72;6072757;29;20241;-63
2020/12/19 12:54:49;;;;;;;11.47;10.27;;;;;;;14.22;48.94;101353.41;6075286;29;20500;-64
2020/12/19 12:58:10;;;;;;;11.10;9.97;;;;;;;14.33;48.69;101356.72;6076649;29;20640;-64
2020/12/19 13:01:31;;;;;;;13.17;11.00;;;;;;;13.61;50.28;101349.03;6067052;29;20233;-64
2020/12/19 13:04:52;;;;;;;10.73;9.53;;;;;;;13.71;50.56;101350.66;6076210;29;20281;-65
2020/12/19 13:08:13;;;;;;;13.37;11.97;;;;;;;13.22;51.44;101338.16;6064627;29;20869;-64
2020/12/19 13:11:34;;;;;;;11.93;10.67;;;;;;;13.58;51.09;101329.88;6072210;29;20241;-64
2020/12/19 13:14:54;;;;;;;11.97;10.73;;;;;;;13.88;50.41;101340.81;6067883;29;20285;-63
2020/12/19 13:18:16;;;;;;;12.50;11.20;;;;;;;13.69;50.69;101336.75;6069952;29;20286;-64
2020/12/19 13:21:43;;;;;;;12.20;10.90;;;;;;;13.17;52.05;101338.22;6074723;29;20245;-64
2020/12/19 13:25:04;;;;;;;11.27;10.17;;;;;;;13.13;52.37;101321.69;6074976;29;20638;-64
2020/12/19 13:28:24;;;;;;;10.90;9.83;;;;;;;13.05;52.69;101322.69;6069034;29;20236;-63
2020/12/19 13:31:45;;;;;;;12.60;11.27;;;;;;;12.85;53.02;101318.50;6075019;29;20253;-63
2020/12/19 13:35:06;;;;;;;12.07;10.87;;;;;;;12.29;54.70;101320.78;6070202;29;20287;-63
2020/12/19 13:38:27;;;;;;;13.23;11.93;;;;;;;12.16;55.45;101333.06;6063931;29;20241;-64
2020/12/19 13:41:48;;;;;;;10.97;9.77;;;;;;;12.26;55.15;101336.47;6095041;29;20601;-61
2020/12/19 13:45:10;;;;;;;12.80;11.53;;;;;;;12.29;54.91;101351.22;6075733;29;20873;-64
2020/12/19 13:48:30;;;;;;;12.30;11.10;;;;;;;12.27;55.12;101364.34;6057309;29;20352;-63
2020/12/19 13:51:50;;;;;;;11.63;10.50;;;;;;;12.21;55.56;101348.69;6068525;29;21044;-63
2020/12/19 13:55:11;;;;;;;11.20;10.00;;;;;;;12.18;55.81;101348.72;6061616;29;20230;-63
2020/12/19 13:58:32;;;;;;;10.97;9.97;;;;;;;12.42;54.91;101347.66;6065474;29;20352;-64
2020/12/19 14:01:52;;;;;;;11.27;10.07;;;;;;;12.30;55.33;101348.63;6059004;29;20225;-64
2020/12/19 14:05:13;;;;;;;11.53;10.50;;;;;;;12.23;55.53;101352.16;6073077;29;20241;-65
2020/12/19 14:08:33;;;;;;;11.07;10.07;;;;;;;12.24;55.59;101346.06;6076341;29;20244;-64
2020/12/19 14:11:55;;;;;;;12.20;11.00;;;;;;;11.92;56.67;101346.28;6064191;29;20512;-64
2020/12/19 14:15:16;;;;;;;11.00;9.97;;;;;;;12.06;56.51;101351.41;6068230;29;20609;-62
2020/12/19 14:18:36;;;;;;;11.80;10.57;;;;;;;12.20;56.00;101347.81;6060084;29;21006;-63
2020/12/19 14:21:56;;;;;;;13.27;11.97;;;;;;;12.35;55.52;101353.81;6062534;29;20265;-63
2020/12/19 14:25:16;;;;;;;11.43;10.23;;;;;;;12.11;56.01;101347.03;6062429;29;20236;-63
2020/12/19 14:28:38;;;;;;;11.97;10.67;;;;;;;12.07;56.45;101342.69;6063908;29;20237;-63
2020/12/19 14:32:01;;;;;;;13.37;10.70;;;;;;;11.84;56.99;101346.28;6065747;29;20245;-64
2020/12/19 14:35:21;;;;;;;13.60;10.83;;;;;;;11.80;57.50;101352.41;6058523;29;20241;-63
2020/12/19 14:38:43;;;;;;;10.40;9.30;;;;;;;11.85;56.91;101352.41;6062528;29;20739;-63
2020/12/19 14:42:03;;;;;;;11.83;10.63;;;;;;;11.97;56.87;101354.94;6063613;29;20237;-63
2020/12/19 14:45:25;;;;;;;13.80;12.43;;;;;;;12.19;56.28;101346.09;6063594;29;20236;-64
2020/12/19 14:48:46;;;;;;;13.87;10.23;;;;;;;12.09;56.44;101348.78;6060718;29;20257;-62
2020/12/19 14:52:08;;;;;;;13.83;12.43;;;;;;;12.25;57.38;101345.16;6068071;29;20261;-62
2020/12/19 14:55:28;;;;;;;14.10;12.60;;;;;;;12.14;56.45;101334.81;6054515;29;20229;-63
2020/12/19 14:58:49;;;;;;;17.50;12.40;;;;;;;11.91;57.20;101321.06;6066454;29;20241;-63
2020/12/19 15:02:11;;;;;;;13.80;12.60;;;;;;;11.81;57.22;101318.47;6067104;29;21069;-63
2020/12/19 15:05:31;;;;;;;11.97;10.40;;;;;;;11.34;58.54;101344.78;6067258;29;20593;-64
2020/12/19 15:08:52;;;;;;;13.17;10.97;;;;;;;11.21;59.16;101342.22;6064705;29;20555;-63
2020/12/19 15:12:12;;;;;;;12.60;11.40;;;;;;;11.33;58.69;101345.66;6067008;29;20252;-64
2020/12/19 15:15:34;;;;;;;11.90;10.70;;;;;;;11.35;58.18;101341.31;6061145;29;20229;-63
2020/12/19 15:18:55;;;;;;;11.83;10.67;;;;;;;11.42;58.15;101330.00;6064169;29;20237;-64
2020/12/19 15:22:16;;;;;;;13.50;12.07;;;;;;;11.11;58.88;101342.25;6061939;29;20524;-63